Time;durP1;ratioP1;P1;durP2;ratioP2;P2;SDS_P1;SDS_P2;PMS_P1;PMS_P2;Temp;Humidity;BMP_temperature;BMP_pressure;BME280_temperature;BME280_humidity;BME280_pressure;Samples;Min_cycle;Max_cycle;Signal;HPM_P1;HPM_P2
2022/04/14 00:01:00;;;;;;;8.17;6.30;;;17.70;94.50;;;;;;5022772;28;20208;-76
2022/04/14 00:03:26;;;;;;;13.63;5.27;;;17.60;94.80;;;;;;5024708;28;20252;-77
2022/04/14 00:05:51;;;;;;;7.83;5.50;;;17.40;95.30;;;;;;5024559;28;20189;-77
2022/04/14 00:08:17;;;;;;;9.83;5.60;;;17.30;96.10;;;;;;5024546;28;20198;-76
2022/04/14 00:10:42;;;;;;;11.50;5.87;;;17.30;96.60;;;;;;5022665;28;20208;-76
2022/04/14 00:13:08;;;;;;;8.43;5.80;;;17.40;96.60;;;;;;5020055;28;20216;-76
2022/04/14 00:15:33;;;;;;;8.40;5.03;;;17.30;96.60;;;;;;5022996;28;20189;-76
2022/04/14 00:17:59;;;;;;;11.77;7.70;;;17.20;97.50;;;;;;5019452;28;20204;-76
2022/04/14 00:20:25;;;;;;;8.60;5.20;;;17.10;98.10;;;;;;5023745;28;20639;-76
2022/04/14 00:22:50;;;;;;;8.67;5.20;;;17.00;98.40;;;;;;5022046;28;20630;-76
2022/04/14 00:25:16;;;;;;;8.60;4.93;;;16.90;99.40;;;;;;5019579;28;20201;-76
2022/04/14 00:27:42;;;;;;;9.57;5.60;;;16.90;99.80;;;;;;5019659;28;20278;-76
2022/04/14 00:30:08;;;;;;;10.00;5.27;;;17.00;99.90;;;;;;5018644;28;20225;-75
2022/04/14 00:32:34;;;;;;;9.40;5.90;;;16.90;99.90;;;;;;5022413;28;20193;-76
2022/04/14 00:35:00;;;;;;;6.60;4.80;;;16.80;99.90;;;;;;5016371;28;20485;-76
2022/04/14 00:37:26;;;;;;;7.13;5.40;;;16.90;99.90;;;;;;5018100;28;20493;-77
2022/04/14 00:39:51;;;;;;;12.77;6.10;;;16.90;99.90;;;;;;5022516;28;20741;-76
2022/04/14 00:42:17;;;;;;;7.67;5.07;;;17.00;99.90;;;;;;5020387;28;20187;-76
2022/04/14 00:44:43;;;;;;;6.70;5.00;;;17.10;99.90;;;;;;5021359;28;20199;-76
2022/04/14 00:47:10;;;;;;;9.00;5.10;;;17.40;99.90;;;;;;5021121;28;20186;-77
2022/04/14 00:49:36;;;;;;;8.13;5.17;;;17.60;99.80;;;;;;5018894;28;20201;-76
2022/04/14 00:52:02;;;;;;;7.57;5.70;;;17.40;99.60;;;;;;5018590;28;20947;-77
2022/04/14 00:54:30;;;;;;;11.90;5.30;;;17.60;99.80;;;;;;5018742;28;20534;-76
2022/04/14 00:56:57;;;;;;;8.03;5.27;;;17.60;99.40;;;;;;5015752;28;20559;-76
2022/04/14 00:59:23;;;;;;;13.20;5.87;;;17.50;99.80;;;;;;5021368;28;20466;-77
2022/04/14 01:01:48;;;;;;;10.40;5.03;;;17.60;99.90;;;;;;5020580;28;20432;-78
2022/04/14 01:04:15;;;;;;;9.17;4.90;;;17.80;99.60;;;;;;5017681;28;20824;-76
2022/04/14 01:06:41;;;;;;;10.33;5.20;;;17.70;99.40;;;;;;5018101;28;20197;-77
2022/04/14 01:09:20;;;;;;;6.63;5.83;;;17.30;99.90;;;;;;5016760;28;20439;-77
2022/04/14 01:11:49;;;;;;;10.90;5.00;;;17.70;99.90;;;;;;5017489;28;20242;-77
2022/04/14 01:14:24;;;;;;;10.63;5.17;;;17.80;99.70;;;;;;5018609;28;20442;-76
2022/04/14 01:16:50;;;;;;;6.63;5.00;;;17.60;99.90;;;;;;5017853;28;20442;-76
2022/04/14 01:19:15;;;;;;;11.63;5.40;;;17.40;99.90;;;;;;5016410;28;21748;-74
2022/04/14 01:22:07;;;;;;;12.60;4.83;;;17.20;99.90;;;;;;5017490;28;20185;-76
2022/04/14 01:24:34;;;;;;;8.67;5.73;;;17.30;99.90;;;;;;5017256;28;20181;-77
2022/04/14 01:27:03;;;;;;;5.50;4.80;;;17.30;99.90;;;;;;5019976;28;20526;-75
2022/04/14 01:29:29;;;;;;;6.27;4.93;;;17.30;99.90;;;;;;5017904;28;20465;-76
2022/04/14 01:31:56;;;;;;;11.93;5.43;;;17.20;99.90;;;;;;5019787;28;20438;-76
2022/04/14 01:34:22;;;;;;;6.50;4.87;;;17.30;99.90;;;;;;5027000;28;20459;-76
2022/04/14 01:36:47;;;;;;;8.60;4.83;;;17.10;99.90;;;;;;5024676;28;20992;-76
2022/04/14 01:39:14;;;;;;;6.50;4.80;;;17.20;99.90;;;;;;5023453;28;21424;-76
2022/04/14 01:41:41;;;;;;;9.80;5.57;;;16.90;99.90;;;;;;5023894;28;20185;-76
2022/04/14 01:44:08;;;;;;;9.27;5.63;;;17.00;99.90;;;;;;5023382;28;20447;-77
2022/04/14 01:46:34;;;;;;;9.10;6.33;;;17.10;99.90;;;;;;5028822;28;20538;-76
2022/04/14 01:49:00;;;;;;;10.03;6.07;;;17.10;99.90;;;;;;5027949;28;20455;-77
2022/04/14 01:51:27;;;;;;;9.20;5.23;;;17.30;99.90;;;;;;5027649;28;20651;-77
2022/04/14 01:53:52;;;;;;;8.70;5.20;;;17.10;99.90;;;;;;5025390;28;20188;-77
2022/04/14 01:56:18;;;;;;;9.60;5.30;;;17.30;99.90;;;;;;5026817;28;20517;-75
2022/04/14 01:58:44;;;;;;;10.07;6.10;;;17.30;99.90;;;;;;5022382;28;20295;-75
2022/04/14 02:01:10;;;;;;;14.57;5.70;;;17.40;99.90;;;;;;5026435;28;20211;-76
2022/04/14 02:03:36;;;;;;;8.20;5.57;;;17.20;99.90;;;;;;5024208;28;20439;-76
2022/04/14 02:06:02;;;;;;;7.87;5.60;;;17.00;99.90;;;;;;5018553;28;20649;-75
2022/04/14 02:08:28;;;;;;;9.90;5.47;;;17.00;99.90;;;;;;5017951;28;20451;-77
2022/04/14 02:10:54;;;;;;;8.27;6.10;;;16.60;99.90;;;;;;5019490;28;20517;-76
2022/04/14 02:13:20;;;;;;;7.10;5.50;;;16.70;99.90;;;;;;5015571;28;21164;-76
2022/04/14 02:15:46;;;;;;;7.97;5.10;;;16.90;99.90;;;;;;5014261;28;20185;-76
2022/04/14 02:18:11;;;;;;;8.70;5.97;;;16.90;99.90;;;;;;5019769;28;20212;-77
2022/04/14 02:20:37;;;;;;;8.63;5.90;;;16.50;99.90;;;;;;5019179;28;20205;-75
2022/04/14 02:23:03;;;;;;;9.00;5.90;;;16.70;99.90;;;;;;5017562;28;20184;-75
2022/04/14 02:25:28;;;;;;;10.43;5.53;;;16.80;99.90;;;;;;5014682;28;20538;-75
2022/04/14 02:27:54;;;;;;;10.50;5.20;;;16.80;99.90;;;;;;5017509;28;20443;-76
2022/04/14 02:30:20;;;;;;;6.47;5.77;;;16.90;99.90;;;;;;5014427;28;20346;-76
2022/04/14 02:32:45;;;;;;;5.90;5.30;;;16.80;99.90;;;;;;5016535;28;20181;-77
2022/04/14 02:35:11;;;;;;;8.60;5.70;;;16.80;99.90;;;;;;5014598;28;20176;-77
2022/04/14 02:37:36;;;;;;;11.83;5.53;;;16.70;99.90;;;;;;5018265;28;20712;-77
2022/04/14 02:40:04;;;;;;;10.50;5.33;;;16.60;99.90;;;;;;5021587;28;20228;-76
2022/04/14 02:42:30;;;;;;;8.87;6.20;;;16.70;99.90;;;;;;5018908;28;20592;-77
2022/04/14 02:44:55;;;;;;;9.37;5.57;;;16.90;99.90;;;;;;5015990;28;20434;-77
2022/04/14 02:47:21;;;;;;;6.47;5.17;;;16.90;99.90;;;;;;5016337;28;20193;-77
2022/04/14 02:49:47;;;;;;;9.10;5.77;;;16.90;99.90;;;;;;5019456;28;20207;-77
2022/04/14 02:52:12;;;;;;;8.30;5.10;;;16.80;99.90;;;;;;5011102;28;20188;-76
2022/04/14 02:54:38;;;;;;;10.73;7.10;;;16.60;99.90;;;;;;5019862;28;20319;-77
2022/04/14 02:57:05;;;;;;;14.07;5.80;;;16.30;99.90;;;;;;5015091;28;20252;-77
2022/04/14 02:59:31;;;;;;;9.13;6.30;;;16.00;99.90;;;;;;5017697;28;20202;-76
2022/04/14 03:01:57;;;;;;;11.53;6.80;;;15.70;99.90;;;;;;5018213;28;20423;-76
2022/04/14 03:04:22;;;;;;;11.23;6.10;;;15.60;99.90;;;;;;5016616;28;20192;-77
2022/04/14 03:06:48;;;;;;;8.47;5.53;;;15.80;99.90;;;;;;5016265;28;20180;-76
2022/04/14 03:09:13;;;;;;;10.30;5.60;;;15.70;99.90;;;;;;5016809;28;20203;-76
2022/04/14 03:11:39;;;;;;;8.97;5.60;;;15.70;99.90;;;;;;5018014;28;20265;-76
2022/04/14 03:14:05;;;;;;;7.83;5.43;;;15.70;99.90;;;;;;5021186;28;20646;-75
2022/04/14 03:16:30;;;;;;;9.43;6.40;;;15.90;99.90;;;;;;5019454;28;20260;-75
2022/04/14 03:18:56;;;;;;;10.33;5.87;;;15.70;99.90;;;;;;5016242;28;20338;-74
2022/04/14 03:21:21;;;;;;;8.60;6.57;;;16.00;99.90;;;;;;5016487;28;20181;-74
2022/04/14 03:23:47;;;;;;;10.20;5.87;;;15.80;99.90;;;;;;5014344;28;20180;-74
2022/04/14 03:26:13;;;;;;;8.97;6.07;;;15.70;99.90;;;;;;5020387;28;20210;-74
2022/04/14 03:28:38;;;;;;;11.27;7.20;;;15.90;99.90;;;;;;5016315;28;20184;-75
2022/04/14 03:31:04;;;;;;;12.60;6.43;;;16.10;99.90;;;;;;5016068;28;20200;-74
2022/04/14 03:33:30;;;;;;;9.03;6.40;;;16.10;99.90;;;;;;5018178;28;20214;-75
2022/04/14 03:35:56;;;;;;;14.93;6.20;;;16.10;99.90;;;;;;5017441;28;20434;-75
2022/04/14 03:38:22;;;;;;;8.80;6.00;;;16.20;99.90;;;;;;5016311;28;20508;-74
2022/04/14 03:40:47;;;;;;;9.43;5.80;;;16.00;99.90;;;;;;5018058;28;20203;-75
2022/04/14 03:43:13;;;;;;;12.97;5.77;;;16.00;99.90;;;;;;5019340;28;20613;-74
2022/04/14 03:45:38;;;;;;;8.73;6.33;;;16.10;99.90;;;;;;5018881;28;20230;-74
2022/04/14 03:48:04;;;;;;;13.90;5.93;;;16.20;99.90;;;;;;5017750;28;20285;-75
2022/04/14 03:50:30;;;;;;;12.30;5.90;;;16.30;99.90;;;;;;5015625;28;20691;-73
2022/04/14 03:52:56;;;;;;;7.93;5.47;;;16.00;99.90;;;;;;5017230;28;20432;-73
2022/04/14 03:55:21;;;;;;;9.70;5.30;;;16.10;99.90;;;;;;5013259;28;20506;-74
2022/04/14 03:57:47;;;;;;;13.23;6.00;;;16.10;99.90;;;;;;5018612;28;20205;-75
2022/04/14 04:00:13;;;;;;;11.30;6.70;;;16.00;99.90;;;;;;5015137;28;20256;-75
2022/04/14 04:02:39;;;;;;;10.93;6.73;;;16.00;99.90;;;;;;5016869;28;20238;-75
2022/04/14 04:05:06;;;;;;;10.43;6.43;;;15.90;99.90;;;;;;5014972;28;20455;-75
2022/04/14 04:07:31;;;;;;;9.70;6.30;;;16.00;99.90;;;;;;5017852;28;20427;-75
2022/04/14 04:09:57;;;;;;;8.80;5.30;;;16.10;99.90;;;;;;5016936;28;20462;-75
2022/04/14 04:12:22;;;;;;;9.20;6.03;;;16.20;99.90;;;;;;5015569;28;20283;-72
2022/04/14 04:14:48;;;;;;;10.13;6.40;;;15.80;99.90;;;;;;5015266;28;20293;-75
2022/04/14 04:17:15;;;;;;;10.20;7.23;;;16.00;99.90;;;;;;5014690;28;20705;-74
2022/04/14 04:19:43;;;;;;;11.50;6.40;;;16.00;99.90;;;;;;5018272;28;20220;-74
2022/04/14 04:22:09;;;;;;;12.67;7.20;;;16.00;99.90;;;;;;5020308;28;20427;-75
2022/04/14 04:24:34;;;;;;;9.10;6.27;;;16.00;99.90;;;;;;5019851;28;20446;-75
2022/04/14 04:27:00;;;;;;;7.90;5.90;;;16.00;99.90;;;;;;5021775;28;20443;-75
2022/04/14 04:29:26;;;;;;;7.97;6.00;;;15.70;99.90;;;;;;5022385;28;20208;-73
2022/04/14 04:31:51;;;;;;;10.40;6.43;;;15.50;99.90;;;;;;5023613;28;20443;-74
2022/04/14 04:34:17;;;;;;;8.33;6.87;;;15.60;99.90;;;;;;5020391;28;20275;-74
2022/04/14 04:36:43;;;;;;;12.47;6.17;;;15.50;99.90;;;;;;5022223;28;20184;-74
2022/04/14 04:39:09;;;;;;;7.90;7.10;;;15.60;99.90;;;;;;5018758;28;20443;-75
2022/04/14 04:41:34;;;;;;;8.93;6.60;;;15.50;99.90;;;;;;5021556;28;20181;-74
2022/04/14 04:44:00;;;;;;;10.07;6.20;;;15.20;99.90;;;;;;5021538;28;20207;-76
2022/04/14 04:46:26;;;;;;;10.20;6.70;;;15.00;99.90;;;;;;5020432;28;20227;-74
2022/04/14 04:48:51;;;;;;;11.23;6.77;;;15.10;99.90;;;;;;5021575;28;20656;-73
2022/04/14 04:51:17;;;;;;;11.60;6.37;;;15.10;99.90;;;;;;5021616;28;20191;-76
2022/04/14 04:53:43;;;;;;;14.10;6.43;;;15.30;99.90;;;;;;5018038;28;20180;-76
2022/04/14 04:56:09;;;;;;;7.73;5.90;;;15.20;99.90;;;;;;5019179;28;20195;-76
2022/04/14 04:58:34;;;;;;;14.87;7.07;;;14.90;99.90;;;;;;5017327;28;20261;-75
2022/04/14 05:01:00;;;;;;;8.87;7.10;;;15.00;99.90;;;;;;5023709;28;20228;-77
2022/04/14 05:03:25;;;;;;;10.10;6.40;;;14.90;99.90;;;;;;5019675;28;20657;-75
2022/04/14 05:05:51;;;;;;;9.33;6.17;;;14.90;99.90;;;;;;5018886;28;20226;-76
2022/04/14 05:08:17;;;;;;;11.07;6.40;;;14.80;99.90;;;;;;5018703;28;20176;-75
2022/04/14 05:10:42;;;;;;;11.37;6.80;;;14.80;99.90;;;;;;5018649;28;20208;-74
2022/04/14 05:13:08;;;;;;;10.23;7.90;;;15.00;99.90;;;;;;5017743;28;20185;-78
2022/04/14 05:15:35;;;;;;;12.17;6.53;;;14.90;99.90;;;;;;5021476;28;20215;-76
2022/04/14 05:18:01;;;;;;;8.03;6.43;;;15.00;99.90;;;;;;5020484;28;20265;-76
2022/04/14 05:20:27;;;;;;;12.17;7.47;;;14.90;99.90;;;;;;5019529;28;20459;-75
2022/04/14 05:22:52;;;;;;;14.60;7.50;;;15.10;99.90;;;;;;5018526;28;20207;-76
2022/04/14 05:25:18;;;;;;;11.03;7.70;;;15.00;99.90;;;;;;5020328;28;20188;-76
2022/04/14 05:27:44;;;;;;;10.40;6.97;;;15.00;99.90;;;;;;5021715;28;20189;-76
2022/04/14 05:30:14;;;;;;;10.03;7.50;;;15.20;99.90;;;;;;5016174;28;20613;-75
2022/04/14 05:32:40;;;;;;;9.37;6.90;;;15.00;99.90;;;;;;5018169;28;20181;-77
2022/04/14 05:35:09;;;;;;;13.93;7.60;;;14.90;99.90;;;;;;5018089;28;21007;-77
2022/04/14 05:37:35;;;;;;;10.23;7.30;;;15.10;99.90;;;;;;5020744;28;20525;-76
2022/04/14 05:40:05;;;;;;;10.77;6.50;;;15.40;99.90;;;;;;5017372;28;20463;-75
2022/04/14 05:42:31;;;;;;;12.87;6.80;;;15.20;99.90;;;;;;5022786;28;20435;-75
2022/04/14 05:44:58;;;;;;;11.30;7.10;;;15.20;99.90;;;;;;5017335;28;20470;-75
2022/04/14 05:47:24;;;;;;;13.70;7.37;;;15.10;99.90;;;;;;5018329;28;20454;-74
2022/04/14 05:49:51;;;;;;;10.40;6.83;;;15.20;99.90;;;;;;5015723;28;20854;-74
2022/04/14 05:52:17;;;;;;;11.43;8.00;;;15.40;99.90;;;;;;5020026;28;20449;-75
2022/04/14 05:54:46;;;;;;;9.13;7.47;;;15.40;99.90;;;;;;5021463;28;20900;-75
2022/04/14 05:57:12;;;;;;;9.77;6.43;;;15.20;99.90;;;;;;5020140;28;20473;-79
2022/04/14 05:59:38;;;;;;;11.33;7.73;;;15.10;99.90;;;;;;5020553;28;20454;-77
2022/04/14 06:02:04;;;;;;;10.10;7.40;;;15.10;99.90;;;;;;5026160;28;20430;-76
2022/04/14 06:04:30;;;;;;;14.13;8.67;;;15.30;99.90;;;;;;5021595;28;20193;-76
2022/04/14 06:06:55;;;;;;;18.40;7.50;;;15.60;99.90;;;;;;5017922;28;20424;-73
2022/04/14 06:09:21;;;;;;;9.43;6.70;;;15.30;99.90;;;;;;5018945;28;20246;-77
2022/04/14 06:11:47;;;;;;;10.83;6.87;;;15.10;99.90;;;;;;5016723;28;20556;-76
2022/04/14 06:14:12;;;;;;;9.77;6.70;;;15.10;99.90;;;;;;5018856;28;20187;-77
2022/04/14 06:16:38;;;;;;;14.20;8.00;;;15.20;99.90;;;;;;5016885;28;20268;-74
2022/04/14 06:19:04;;;;;;;13.70;7.70;;;15.10;99.90;;;;;;5017881;28;20211;-75
2022/04/14 06:21:29;;;;;;;10.67;7.27;;;15.20;99.90;;;;;;5019501;28;20688;-76
2022/04/14 06:23:56;;;;;;;12.70;7.10;;;15.50;99.90;;;;;;5014201;28;20310;-73
2022/04/14 06:26:22;;;;;;;11.70;7.70;;;15.70;99.90;;;;;;5013283;28;20173;-74
2022/04/14 06:28:47;;;;;;;10.10;7.87;;;15.70;99.90;;;;;;5019857;28;20834;-73
2022/04/14 06:31:14;;;;;;;17.90;8.93;;;15.70;99.90;;;;;;5015509;28;20520;-72
2022/04/14 06:33:40;;;;;;;17.13;9.13;;;15.90;99.90;;;;;;5015202;28;20529;-73
2022/04/14 06:36:05;;;;;;;11.20;8.50;;;15.90;99.90;;;;;;5017917;28;21022;-73
2022/04/14 06:38:31;;;;;;;13.00;9.93;;;16.10;99.90;;;;;;5017142;28;20459;-75
2022/04/14 06:40:57;;;;;;;16.27;8.60;;;16.20;99.90;;;;;;5013751;28;20584;-74
2022/04/14 06:43:24;;;;;;;12.10;8.50;;;16.30;99.90;;;;;;5015715;28;20260;-76
2022/04/14 06:45:50;;;;;;;17.20;9.70;;;16.30;99.90;;;;;;5017912;28;20172;-76
2022/04/14 06:48:16;;;;;;;15.57;10.60;;;16.30;99.90;;;;;;5016246;28;20919;-76
2022/04/14 06:50:42;;;;;;;13.43;10.73;;;16.30;99.90;;;;;;5013458;28;20467;-75
2022/04/14 06:53:08;;;;;;;17.87;12.70;;;16.30;99.90;;;;;;5018081;28;20457;-75
2022/04/14 06:55:36;;;;;;;19.97;12.77;;;16.50;99.90;;;;;;5016096;28;20481;-71
2022/04/14 06:58:02;;;;;;;16.00;12.27;;;16.50;99.90;;;;;;5016659;28;20526;-73
2022/04/14 07:00:28;;;;;;;14.43;10.90;;;16.60;99.90;;;;;;5024501;28;20476;-75
2022/04/14 07:02:55;;;;;;;16.80;11.30;;;16.70;99.90;;;;;;5033321;28;20899;-75
2022/04/14 07:05:22;;;;;;;19.80;13.77;;;16.70;99.90;;;;;;5015483;28;20430;-75
2022/04/14 07:07:49;;;;;;;22.07;17.20;;;16.90;99.90;;;;;;5017762;28;20446;-73
2022/04/14 07:10:15;;;;;;;26.97;16.87;;;16.90;99.90;;;;;;5019080;28;20459;-75
2022/04/14 07:12:42;;;;;;;25.73;17.07;;;16.90;99.90;;;;;;5016164;28;20501;-70
2022/04/14 07:15:09;;;;;;;24.17;16.00;;;16.90;99.90;;;;;;5022050;28;20181;-71
2022/04/14 07:17:35;;;;;;;25.37;16.97;;;17.20;99.90;;;;;;5021059;28;20469;-71
2022/04/14 07:20:03;;;;;;;22.23;16.30;;;17.20;99.90;;;;;;5014958;28;20567;-71
2022/04/14 07:22:31;;;;;;;29.07;21.10;;;17.10;99.90;;;;;;5018758;28;20435;-71
2022/04/14 07:24:59;;;;;;;27.53;20.47;;;17.00;99.90;;;;;;5018789;28;20498;-71
2022/04/14 07:27:25;;;;;;;26.50;19.47;;;16.90;99.90;;;;;;5017753;28;20443;-71
2022/04/14 07:29:51;;;;;;;24.67;18.50;;;16.90;99.90;;;;;;5012827;28;20459;-72
2022/04/14 07:32:17;;;;;;;23.53;17.73;;;17.00;99.90;;;;;;5011537;28;20821;-72
2022/04/14 07:34:42;;;;;;;26.33;16.67;;;17.20;99.90;;;;;;5016696;28;20287;-72
2022/04/14 07:37:08;;;;;;;21.00;16.47;;;17.20;99.90;;;;;;5012520;28;20585;-71
2022/04/14 07:39:34;;;;;;;21.77;16.00;;;17.40;99.90;;;;;;5015127;28;20254;-72
2022/04/14 07:41:59;;;;;;;21.13;18.30;;;17.50;99.90;;;;;;5016263;28;20177;-72
2022/04/14 07:44:25;;;;;;;21.77;16.70;;;17.60;99.90;;;;;;5016035;28;20264;-72
2022/04/14 07:46:51;;;;;;;26.50;18.57;;;17.60;99.90;;;;;;5014627;28;20172;-71
2022/04/14 07:49:16;;;;;;;23.10;16.60;;;17.60;99.90;;;;;;5015023;28;20213;-72
2022/04/14 07:51:42;;;;;;;26.73;19.70;;;17.60;99.90;;;;;;5020919;28;20192;-72
2022/04/14 07:54:08;;;;;;;26.10;17.90;;;17.80;99.90;;;;;;5016942;28;20917;-71
2022/04/14 07:56:33;;;;;;;21.40;16.03;;;17.80;99.90;;;;;;5017111;28;20192;-73
2022/04/14 07:58:59;;;;;;;21.30;16.57;;;17.80;99.90;;;;;;5015282;28;20193;-73
2022/04/14 08:01:26;;;;;;;21.87;18.10;;;17.90;99.90;;;;;;5020811;28;20258;-75
2022/04/14 08:03:51;;;;;;;22.93;17.00;;;18.00;99.90;;;;;;5021486;28;20428;-71
2022/04/14 08:06:17;;;;;;;27.83;18.50;;;18.10;99.90;;;;;;5021995;28;20403;-72
2022/04/14 08:08:43;;;;;;;22.43;17.73;;;17.80;99.90;;;;;;5020388;28;20208;-72
2022/04/14 08:11:10;;;;;;;25.10;19.40;;;17.80;99.90;;;;;;5021212;28;20465;-73
2022/04/14 08:13:38;;;;;;;25.87;17.87;;;17.80;99.90;;;;;;5020889;28;20226;-72
2022/04/14 08:16:09;;;;;;;24.80;17.23;;;17.90;99.90;;;;;;5024171;28;20457;-74
2022/04/14 08:18:39;;;;;;;20.87;18.10;;;17.80;99.90;;;;;;5020730;28;20472;-72
2022/04/14 08:21:06;;;;;;;21.87;17.20;;;18.00;99.90;;;;;;5024822;28;20462;-72
2022/04/14 08:23:32;;;;;;;22.20;18.17;;;18.00;99.90;;;;;;5022954;28;20894;-73
2022/04/14 08:26:01;;;;;;;23.93;16.17;;;18.20;99.90;;;;;;5022234;28;20520;-73
2022/04/14 08:28:26;;;;;;;25.20;18.87;;;18.40;99.90;;;;;;5021725;28;20423;-72
2022/04/14 08:30:54;;;;;;;24.33;19.23;;;18.30;99.90;;;;;;5023081;28;21163;-72
2022/04/14 08:33:23;;;;;;;21.80;17.60;;;18.30;99.90;;;;;;5024926;28;20665;-72
2022/04/14 08:35:49;;;;;;;20.10;16.90;;;18.40;99.90;;;;;;5018064;28;20427;-73
2022/04/14 08:38:15;;;;;;;20.90;18.07;;;18.60;99.90;;;;;;5020259;28;20496;-73
2022/04/14 08:40:44;;;;;;;26.63;19.57;;;18.70;99.90;;;;;;5022734;28;20459;-73
2022/04/14 08:43:10;;;;;;;28.03;20.37;;;18.70;99.90;;;;;;5023895;28;20498;-72
2022/04/14 08:45:43;;;;;;;25.00;19.27;;;18.60;99.90;;;;;;5024034;28;20459;-74
2022/04/14 08:48:10;;;;;;;24.50;19.10;;;18.70;99.90;;;;;;5022898;28;21226;-73
2022/04/14 08:50:36;;;;;;;26.37;18.87;;;18.90;99.90;;;;;;5020169;28;20482;-73
2022/04/14 08:53:04;;;;;;;26.60;19.43;;;18.90;99.90;;;;;;5022453;28;20431;-72
2022/04/14 08:55:30;;;;;;;21.20;18.37;;;19.00;99.90;;;;;;5025388;28;20475;-72
2022/04/14 08:57:56;;;;;;;26.33;20.10;;;19.00;99.90;;;;;;5025753;28;20494;-72
2022/04/14 09:00:22;;;;;;;23.53;17.07;;;19.10;99.90;;;;;;5019061;28;21056;-73
2022/04/14 09:02:50;;;;;;;26.27;19.13;;;19.20;99.90;;;;;;5020677;28;20439;-72
2022/04/14 09:05:17;;;;;;;20.50;16.90;;;19.00;99.90;;;;;;5014044;28;20226;-71
2022/04/14 09:07:48;;;;;;;23.27;16.87;;;19.00;99.90;;;;;;5020149;28;20820;-72
2022/04/14 09:10:13;;;;;;;21.97;16.63;;;19.10;99.90;;;;;;5020486;28;20628;-72
2022/04/14 09:12:40;;;;;;;23.10;17.20;;;19.10;99.90;;;;;;5020904;28;21172;-72
2022/04/14 09:15:06;;;;;;;20.50;18.00;;;19.10;99.90;;;;;;5019040;28;20184;-73
2022/04/14 09:17:32;;;;;;;25.77;19.03;;;19.20;99.90;;;;;;5018849;28;20459;-73
2022/04/14 09:19:58;;;;;;;25.37;18.10;;;19.20;99.90;;;;;;5020388;28;20467;-73
2022/04/14 09:22:24;;;;;;;26.00;19.10;;;19.20;99.90;;;;;;5018754;28;20635;-73
2022/04/14 09:24:54;;;;;;;22.33;18.13;;;19.30;99.90;;;;;;5027530;28;20212;-72
2022/04/14 09:27:32;;;;;;;22.60;18.33;;;19.30;99.90;;;;;;5021408;28;20203;-73
2022/04/14 09:30:06;;;;;;;21.40;18.10;;;19.30;99.90;;;;;;5019184;28;20885;-72
2022/04/14 09:32:42;;;;;;;22.37;18.60;;;19.40;99.90;;;;;;5016864;28;20434;-73
2022/04/14 09:35:19;;;;;;;24.60;17.63;;;19.50;99.90;;;;;;5022365;28;20927;-73
2022/04/14 09:37:45;;;;;;;22.23;19.23;;;19.60;99.90;;;;;;5019136;28;20473;-72
2022/04/14 09:40:12;;;;;;;24.77;19.40;;;19.50;99.90;;;;;;5021811;28;20871;-72
2022/04/14 09:42:40;;;;;;;27.20;20.17;;;19.60;99.90;;;;;;5021889;28;20505;-73
2022/04/14 09:45:19;;;;;;;22.67;17.40;;;19.60;99.90;;;;;;5016941;28;20424;-72
2022/04/14 09:47:45;;;;;;;26.53;18.37;;;19.50;99.90;;;;;;5019437;28;20438;-71
2022/04/14 09:50:28;;;;;;;24.27;18.50;;;19.60;99.90;;;;;;5022143;28;20448;-73
2022/04/14 09:53:05;;;;;;;22.60;18.57;;;19.80;99.90;;;;;;5032807;28;20435;-72
2022/04/14 09:55:35;;;;;;;24.87;19.17;;;19.90;99.90;;;;;;5021416;28;20414;-73
2022/04/14 09:58:10;;;;;;;27.83;19.70;;;19.80;99.90;;;;;;5022108;28;20992;-72
2022/04/14 10:00:41;;;;;;;28.20;19.47;;;19.90;99.90;;;;;;5022093;28;20963;-72
2022/04/14 10:03:28;;;;;;;23.80;19.37;;;20.00;99.90;;;;;;5016300;28;20423;-72
2022/04/14 10:06:06;;;;;;;23.97;18.17;;;19.80;99.90;;;;;;5016055;28;20428;-73
2022/04/14 10:08:51;;;;;;;28.30;19.77;;;19.70;99.90;;;;;;5018402;28;20951;-72
2022/04/14 10:11:30;;;;;;;24.90;20.43;;;19.60;99.90;;;;;;5017877;28;20482;-73
2022/04/14 10:14:23;;;;;;;21.43;19.07;;;19.40;99.90;;;;;;5019657;28;20508;-73
2022/04/14 10:16:49;;;;;;;29.70;21.30;;;19.50;99.90;;;;;;5019490;28;20427;-73
2022/04/14 10:19:15;;;;;;;22.90;18.03;;;19.40;99.90;;;;;;5020386;28;20605;-72
2022/04/14 10:21:43;;;;;;;24.60;19.00;;;19.20;99.90;;;;;;5015649;28;20446;-74
2022/04/14 10:24:11;;;;;;;26.77;21.17;;;19.50;99.90;;;;;;5018513;28;20432;-72
2022/04/14 10:26:38;;;;;;;27.80;20.90;;;19.40;99.90;;;;;;5020196;28;21003;-72
2022/04/14 10:29:06;;;;;;;26.13;20.40;;;19.30;99.90;;;;;;5017611;28;20948;-72
2022/04/14 10:31:35;;;;;;;30.30;21.70;;;19.40;99.90;;;;;;5014990;28;21006;-72
2022/04/14 10:34:04;;;;;;;29.17;23.63;;;19.30;99.90;;;;;;5017948;28;20954;-73
2022/04/14 10:36:31;;;;;;;24.93;20.07;;;19.20;99.90;;;;;;5017488;28;20532;-73
2022/04/14 10:38:59;;;;;;;29.43;21.67;;;19.20;99.90;;;;;;5020831;28;20456;-72
2022/04/14 10:41:31;;;;;;;25.97;19.17;;;19.30;99.90;;;;;;5013666;28;20776;-72
2022/04/14 10:44:01;;;;;;;27.83;22.30;;;19.40;99.90;;;;;;5021772;28;20428;-72
2022/04/14 10:46:51;;;;;;;38.40;22.57;;;19.50;99.90;;;;;;5020887;28;20423;-72
2022/04/14 10:49:25;;;;;;;25.80;22.00;;;19.60;99.90;;;;;;5021713;28;20447;-72
2022/04/14 10:51:55;;;;;;;25.53;21.37;;;19.60;99.90;;;;;;5017037;28;20458;-75
2022/04/14 10:54:21;;;;;;;24.90;19.60;;;19.70;99.90;;;;;;5019746;28;20424;-72
2022/04/14 10:56:51;;;;;;;28.73;22.10;;;19.80;99.90;;;;;;5017385;28;20512;-72
2022/04/14 10:59:46;;;;;;;23.63;20.97;;;19.70;99.90;;;;;;5017159;28;20239;-72
2022/04/14 11:02:12;;;;;;;26.60;20.93;;;19.60;99.90;;;;;;5011825;28;20479;-73
2022/04/14 11:04:51;;;;;;;28.47;21.27;;;19.70;99.90;;;;;;5019903;28;20434;-72
2022/04/14 11:07:21;;;;;;;25.33;19.90;;;19.90;99.90;;;;;;5020606;28;20438;-71
2022/04/14 11:09:59;;;;;;;23.70;20.30;;;20.10;99.90;;;;;;5019542;28;20439;-69
2022/04/14 11:12:28;;;;;;;23.43;19.53;;;20.30;99.90;;;;;;5016281;28;20472;-72
2022/04/14 11:14:59;;;;;;;29.20;20.83;;;20.40;99.90;;;;;;5017804;28;20428;-72
2022/04/14 11:20:45;;;;;;;27.63;19.30;;;20.80;99.90;;;;;;5017403;28;20465;-72
2022/04/14 11:23:24;;;;;;;23.57;19.87;;;20.70;99.90;;;;;;5018944;28;20952;-72
2022/04/14 11:26:06;;;;;;;23.13;19.13;;;20.80;99.90;;;;;;5019751;28;20485;-72
2022/04/14 11:28:34;;;;;;;21.60;18.93;;;21.00;99.90;;;;;;5022194;28;20435;-72
2022/04/14 11:31:18;;;;;;;23.23;20.57;;;21.30;99.90;;;;;;5025396;28;20552;-72
2022/04/14 11:33:45;;;;;;;23.03;20.50;;;21.20;99.90;;;;;;5022051;28;20440;-72
2022/04/14 11:36:25;;;;;;;28.37;20.83;;;21.30;99.90;;;;;;5020253;28;20858;-73
2022/04/14 11:38:51;;;;;;;24.87;20.77;;;21.30;99.90;;;;;;5023982;28;21089;-72
2022/04/14 11:41:41;;;;;;;22.33;19.07;;;21.40;99.90;;;;;;5023822;28;20446;-72
2022/04/14 11:44:10;;;;;;;23.70;21.00;;;21.40;99.90;;;;;;5024955;28;20431;-73
2022/04/14 11:46:37;;;;;;;24.70;18.97;;;21.50;99.90;;;;;;5021902;28;20458;-73
2022/04/14 11:49:04;;;;;;;21.77;18.90;;;21.70;99.90;;;;;;5028422;28;20810;-73
2022/04/14 11:51:30;;;;;;;24.23;20.20;;;21.90;99.90;;;;;;5026044;28;20462;-73
2022/04/14 11:53:56;;;;;;;23.50;20.73;;;22.10;99.90;;;;;;5021791;28;20876;-73
2022/04/14 11:56:24;;;;;;;23.77;20.60;;;22.00;99.90;;;;;;5025151;28;20199;-73
2022/04/14 11:58:50;;;;;;;24.47;20.30;;;22.10;99.90;;;;;;5023754;28;20960;-72
2022/04/14 12:01:17;;;;;;;22.97;20.40;;;22.00;99.90;;;;;;5020748;28;20459;-72
2022/04/14 12:03:43;;;;;;;22.33;19.50;;;22.00;99.90;;;;;;5021840;28;20541;-72
2022/04/14 12:06:11;;;;;;;23.50;21.10;;;22.30;99.90;;;;;;5023915;28;20436;-72
2022/04/14 12:08:37;;;;;;;22.60;19.87;;;22.50;99.90;;;;;;5017712;28;20430;-72
2022/04/14 12:11:14;;;;;;;24.33;19.43;;;22.90;99.90;;;;;;5018954;28;20482;-72
2022/04/14 12:13:40;;;;;;;23.70;20.20;;;23.00;99.90;;;;;;5022597;28;20184;-72
2022/04/14 12:16:11;;;;;;;27.60;20.17;;;22.90;99.90;;;;;;5021625;28;20470;-73
2022/04/14 12:18:39;;;;;;;22.47;18.57;;;23.00;99.90;;;;;;5023779;28;20470;-71
2022/04/14 12:21:06;;;;;;;29.70;20.10;;;23.10;99.90;;;;;;5021273;28;20642;-72
2022/04/14 12:23:33;;;;;;;23.50;17.73;;;23.20;99.90;;;;;;5021442;28;20435;-72
2022/04/14 12:26:03;;;;;;;27.10;19.90;;;23.10;99.90;;;;;;5021198;28;20435;-72
2022/04/14 12:28:29;;;;;;;18.00;15.70;;;23.40;99.90;;;;;;5020319;28;20952;-71
2022/04/14 12:30:55;;;;;;;19.20;17.10;;;23.60;99.90;;;;;;5022598;28;20454;-72
2022/04/14 12:33:27;;;;;;;20.30;17.73;;;23.60;99.90;;;;;;5022404;28;20184;-70
2022/04/14 12:36:07;;;;;;;25.47;17.53;;;23.40;99.90;;;;;;5015464;28;20278;-72
2022/04/14 12:38:44;;;;;;;18.67;15.87;;;23.70;99.90;;;;;;5023981;28;20459;-72
2022/04/14 12:41:17;;;;;;;18.97;16.17;;;24.10;99.90;;;;;;5024671;28;20564;-73